createdAt,value
2018-04-10T00:01:16.594Z,54.23
2018-04-10T00:03:44.213Z,54.90
2018-04-10T00:06:11.779Z,55.80
2018-04-10T00:08:39.347Z,54.57
2018-04-10T00:11:06.963Z,54.47
2018-04-10T00:13:34.545Z,55.57
2018-04-10T00:16:02.143Z,55.43
2018-04-10T00:18:29.710Z,57.17
2018-04-10T00:20:57.335Z,55.70
2018-04-10T00:23:24.927Z,55.00
2018-04-10T00:25:52.530Z,54.53
2018-04-10T00:28:20.122Z,55.13
2018-04-10T00:30:47.732Z,54.47
2018-04-10T00:33:15.305Z,56.80
2018-04-10T00:35:42.915Z,55.13
2018-04-10T00:38:10.521Z,55.13
2018-04-10T00:40:38.142Z,53.97
2018-04-10T00:43:05.704Z,54.87
2018-04-10T00:45:33.268Z,54.77
2018-04-10T00:48:00.866Z,55.50
2018-04-10T00:50:28.436Z,54.53
2018-04-10T00:53:07.830Z,55.03
2018-04-10T00:55:35.394Z,54.67
2018-04-10T00:58:03.007Z,54.30
2018-04-10T01:00:31.343Z,56.20
2018-04-10T01:02:58.945Z,53.43
2018-04-10T01:05:27.315Z,54.77
2018-04-10T01:07:54.881Z,54.23
2018-04-10T01:10:23.248Z,52.73
2018-04-10T01:12:50.818Z,54.80
2018-04-10T01:15:18.416Z,53.63
2018-04-10T01:17:46.015Z,53.77
2018-04-10T01:20:13.616Z,51.83
2018-04-10T01:22:41.221Z,52.23
2018-04-10T01:25:08.828Z,53.60
2018-04-10T01:27:37.164Z,51.97
2018-04-10T01:30:04.763Z,51.50
2018-04-10T01:32:32.327Z,52.47
2018-04-10T01:34:59.946Z,54.07
2018-04-10T01:37:27.552Z,54.23
2018-04-10T01:39:55.919Z,52.50
2018-04-10T01:42:23.513Z,54.37
2018-04-10T01:44:51.085Z,55.63
2018-04-10T01:47:18.882Z,53.40
2018-04-10T01:49:46.506Z,53.40
2018-04-10T01:52:14.110Z,54.53
2018-04-10T01:54:41.677Z,53.90
2018-04-10T01:57:09.288Z,55.10
2018-04-10T01:59:36.853Z,54.63
2018-04-10T02:02:04.461Z,53.53
2018-04-10T02:04:32.069Z,55.07
2018-04-10T02:06:59.635Z,53.87
2018-04-10T02:09:27.200Z,53.93
2018-04-10T02:11:54.810Z,53.60
2018-04-10T02:14:22.406Z,52.63
2018-04-10T02:16:49.966Z,51.27
2018-04-10T02:19:18.335Z,53.67
2018-04-10T02:21:46.662Z,54.37
2018-04-10T02:24:14.267Z,53.87
2018-04-10T02:26:41.883Z,53.37
2018-04-10T02:29:09.501Z,54.63
2018-04-10T02:31:37.106Z,53.40
2018-04-10T02:34:04.718Z,53.73
2018-04-10T02:36:32.295Z,53.70
2018-04-10T02:38:59.913Z,55.73
2018-04-10T02:41:28.728Z,52.90
2018-04-10T02:43:57.264Z,51.87
2018-04-10T02:46:24.892Z,52.27
2018-04-10T02:48:52.482Z,53.10
2018-04-10T02:51:20.101Z,54.37
2018-04-10T02:53:47.707Z,53.33
2018-04-10T02:56:15.321Z,53.50
2018-04-10T02:58:43.858Z,51.83
2018-04-10T03:01:13.128Z,52.07
2018-04-10T03:03:40.709Z,52.43
2018-04-10T03:06:08.385Z,52.23
2018-04-10T03:08:35.977Z,52.77
2018-04-10T03:11:03.608Z,51.80
2018-04-10T03:13:31.185Z,51.40
2018-04-10T03:15:58.766Z,51.40
2018-04-10T03:18:26.384Z,52.17
2018-04-10T03:20:53.947Z,54.77
2018-04-10T03:23:21.521Z,52.43
2018-04-10T03:25:49.130Z,53.27
2018-04-10T03:28:16.744Z,53.20
2018-04-10T03:30:44.317Z,53.97
2018-04-10T03:33:11.929Z,53.20
2018-04-10T03:35:39.548Z,54.10
2018-04-10T03:38:07.163Z,54.57
2018-04-10T03:40:34.735Z,52.10
2018-04-10T03:43:02.321Z,51.93
2018-04-10T03:45:29.925Z,51.90
2018-04-10T03:47:57.514Z,55.13
2018-04-10T03:50:25.149Z,50.90
2018-04-10T03:52:52.762Z,54.00
2018-04-10T03:55:20.551Z,52.23
2018-04-10T03:57:48.168Z,53.20
2018-04-10T04:00:15.778Z,54.77
2018-04-10T04:02:44.148Z,55.83
2018-04-10T04:05:11.744Z,54.53
2018-04-10T04:07:39.349Z,52.23
2018-04-10T04:10:06.965Z,56.80
2018-04-10T04:12:34.572Z,55.27
2018-04-10T04:15:02.213Z,56.37
2018-04-10T04:17:33.566Z,53.90
2018-04-10T04:20:12.872Z,57.10
2018-04-10T04:22:40.443Z,53.43
2018-04-10T04:25:08.057Z,54.77
2018-04-10T04:27:35.628Z,52.63
2018-04-10T04:30:03.412Z,55.53
2018-04-10T04:32:31.781Z,51.77
2018-04-10T04:35:00.168Z,53.37
2018-04-10T04:37:28.509Z,53.50
2018-04-10T04:39:56.117Z,55.57
2018-04-10T04:42:24.484Z,53.83
2018-04-10T04:44:52.817Z,54.13
2018-04-10T04:47:20.484Z,53.50
2018-04-10T04:49:48.056Z,53.60
2018-04-10T04:52:15.691Z,54.37
2018-04-10T04:54:43.315Z,54.90
2018-04-10T04:57:10.892Z,53.23
2018-04-10T04:59:38.490Z,54.40
2018-04-10T05:02:06.114Z,55.13
2018-04-10T05:04:33.688Z,53.37
2018-04-10T05:07:01.345Z,55.37
2018-04-10T05:09:28.920Z,54.03
2018-04-10T05:11:56.579Z,55.20
2018-04-10T05:14:24.201Z,54.90
2018-04-10T05:16:51.884Z,56.37
2018-04-10T05:19:19.455Z,54.13
2018-04-10T05:21:47.084Z,54.87
2018-04-10T05:24:15.410Z,54.03
2018-04-10T05:26:43.025Z,54.83
2018-04-10T05:29:10.611Z,52.93
2018-04-10T05:31:38.297Z,54.03
2018-04-10T05:34:05.922Z,54.87
2018-04-10T05:36:34.337Z,55.07
2018-04-10T05:39:02.041Z,52.97
2018-04-10T05:41:29.615Z,52.63
2018-04-10T05:43:57.193Z,53.20
2018-04-10T05:46:24.807Z,51.73
2018-04-10T05:48:52.571Z,50.73
2018-04-10T05:51:20.176Z,51.20
2018-04-10T05:53:47.751Z,56.63
2018-04-10T05:56:15.360Z,54.10
2018-04-10T05:58:43.013Z,52.60
2018-04-10T06:01:10.591Z,50.37
2018-04-10T06:03:38.163Z,49.03
2018-04-10T06:06:05.764Z,50.90
2018-04-10T06:08:33.373Z,51.70
2018-04-10T06:11:00.944Z,52.03
2018-04-10T06:13:28.563Z,50.77
2018-04-10T06:15:56.132Z,50.80
2018-04-10T06:18:23.695Z,50.43
2018-04-10T06:20:52.062Z,47.43
2018-04-10T06:23:19.632Z,48.93
2018-04-10T06:25:47.235Z,48.10
2018-04-10T06:28:14.822Z,45.33
2018-04-10T06:30:42.448Z,48.40
2018-04-10T06:33:10.025Z,46.60
2018-04-10T06:35:38.359Z,44.37
2018-04-10T06:38:05.975Z,45.07
2018-04-10T06:40:33.544Z,44.10
2018-04-10T06:43:01.153Z,45.70
2018-04-10T06:45:28.730Z,45.47
2018-04-10T06:47:56.338Z,43.07
2018-04-10T06:50:23.904Z,43.73
2018-04-10T06:52:51.542Z,43.70
2018-04-10T06:55:19.121Z,41.90
2018-04-10T06:57:46.901Z,43.47
2018-04-10T07:00:16.193Z,41.07
2018-04-10T07:02:43.810Z,44.60
2018-04-10T07:05:11.493Z,41.63
2018-04-10T07:07:39.070Z,42.03
2018-04-10T07:10:06.676Z,41.50
2018-04-10T07:12:34.522Z,40.87
2018-04-10T07:15:02.121Z,42.33
2018-04-10T07:17:29.722Z,39.03
2018-04-10T07:19:57.302Z,38.60
2018-04-10T07:22:24.921Z,40.47
2018-04-10T07:24:52.489Z,39.23
2018-04-10T07:27:20.119Z,38.97
2018-04-10T07:29:47.688Z,40.07
2018-04-10T07:32:15.358Z,38.63
2018-04-10T07:34:42.929Z,37.23
2018-04-10T07:37:11.743Z,38.47
2018-04-10T07:39:39.346Z,37.07
2018-04-10T07:42:07.031Z,37.13
2018-04-10T07:44:35.403Z,38.00
2018-04-10T07:47:03.009Z,37.07
2018-04-10T07:49:31.731Z,34.60
2018-04-10T07:51:59.570Z,36.77
2018-04-10T07:54:28.612Z,34.27
2018-04-10T07:56:56.171Z,36.73
2018-04-10T07:59:24.413Z,36.83
2018-04-10T08:01:52.020Z,34.47
2018-04-10T08:04:20.389Z,35.90
2018-04-10T08:06:47.969Z,35.13
2018-04-10T08:09:16.340Z,35.80
2018-04-10T08:11:44.680Z,33.83
2018-04-10T08:14:12.248Z,33.60
2018-04-10T08:16:39.854Z,33.93
2018-04-10T08:19:07.423Z,32.40
2018-04-10T08:21:36.745Z,31.87
2018-04-10T08:24:04.333Z,31.73
2018-04-10T08:26:31.941Z,31.30
2018-04-10T08:28:59.518Z,31.33
2018-04-10T08:31:27.126Z,31.20
2018-04-10T08:33:54.717Z,30.70
2018-04-10T08:36:22.341Z,29.43
2018-04-10T08:38:49.970Z,29.63
2018-04-10T08:41:17.703Z,29.10
2018-04-10T08:43:45.338Z,29.73
2018-04-10T08:46:12.910Z,30.57
2018-04-10T08:48:40.536Z,29.13
2018-04-10T08:51:08.175Z,29.10
2018-04-10T08:53:35.747Z,30.37
2018-04-10T08:56:03.317Z,31.07
2018-04-10T08:58:31.074Z,28.77
2018-04-10T09:00:58.681Z,29.00
2018-04-10T09:03:26.251Z,29.67
2018-04-10T09:05:54.651Z,28.67
2018-04-10T09:08:22.271Z,28.83
2018-04-10T09:10:49.838Z,28.23
2018-04-10T09:13:17.452Z,29.93
2018-04-10T09:15:45.029Z,27.97
2018-04-10T09:18:12.602Z,28.13
2018-04-10T09:20:40.215Z,29.13
2018-04-10T09:23:07.801Z,27.13
2018-04-10T09:25:35.415Z,27.50
2018-04-10T09:28:03.832Z,28.03
2018-04-10T09:30:31.408Z,28.87
2018-04-10T09:32:59.020Z,28.47
2018-04-10T09:35:27.353Z,30.37
2018-04-10T09:37:54.964Z,28.17
2018-04-10T09:40:23.390Z,28.07
2018-04-10T09:42:51.154Z,28.57
2018-04-10T09:45:18.760Z,28.10
2018-04-10T09:47:46.378Z,28.77
2018-04-10T09:50:13.996Z,28.20
2018-04-10T09:52:41.629Z,28.63
2018-04-10T09:55:09.245Z,30.23
2018-04-10T09:57:36.816Z,28.30
2018-04-10T10:00:04.420Z,27.87
2018-04-10T10:02:32.078Z,29.77
2018-04-10T10:04:59.644Z,29.77
2018-04-10T10:07:27.247Z,28.73
2018-04-10T10:09:54.816Z,31.27
2018-04-10T10:12:26.328Z,30.77
2018-04-10T10:14:55.892Z,31.93
2018-04-10T10:17:23.783Z,32.87
2018-04-10T10:19:51.406Z,32.40
2018-04-10T10:22:19.049Z,28.93
2018-04-10T10:24:47.388Z,32.23
2018-04-10T10:27:14.959Z,31.90
2018-04-10T10:29:42.566Z,31.27
2018-04-10T10:32:10.168Z,34.20
2018-04-10T10:34:37.772Z,32.27
2018-04-10T10:37:05.345Z,31.37
2018-04-10T10:39:32.976Z,31.10
2018-04-10T10:42:00.590Z,32.40
2018-04-10T10:44:28.200Z,32.23
2018-04-10T10:46:56.773Z,32.00
2018-04-10T10:49:24.381Z,34.43
2018-04-10T10:51:51.957Z,34.33
2018-04-10T10:54:19.595Z,34.13
2018-04-10T10:56:47.211Z,33.37
2018-04-10T10:59:14.825Z,30.60
2018-04-10T11:01:42.389Z,31.67
2018-04-10T11:04:09.961Z,31.03
2018-04-10T11:06:37.569Z,30.70
2018-04-10T11:09:06.047Z,31.60
2018-04-10T11:11:33.673Z,31.73
2018-04-10T11:14:01.296Z,32.20
2018-04-10T11:16:28.872Z,32.03
2018-04-10T11:18:56.472Z,33.40
2018-04-10T11:21:24.086Z,34.67
2018-04-10T11:23:51.705Z,31.50
2018-04-10T11:26:19.290Z,32.37
2018-04-10T11:28:46.910Z,34.43
2018-04-10T11:31:14.542Z,32.50
2018-04-10T11:33:42.121Z,32.57
2018-04-10T11:36:09.693Z,34.50
2018-04-10T11:38:38.395Z,32.17
2018-04-10T11:41:06.012Z,33.23
2018-04-10T11:43:33.576Z,32.57
2018-04-10T11:46:01.173Z,33.43
2018-04-10T11:48:28.783Z,33.60
2018-04-10T11:50:56.363Z,32.83
2018-04-10T11:53:23.969Z,32.60
2018-04-10T11:55:51.580Z,33.90
2018-04-10T11:58:19.165Z,34.03
2018-04-10T12:00:46.777Z,34.50
2018-04-10T12:03:14.340Z,35.60
2018-04-10T12:05:42.729Z,34.23
2018-04-10T12:08:11.064Z,33.23
2018-04-10T12:10:38.643Z,34.30
2018-04-10T12:13:06.305Z,30.87
2018-04-10T12:15:33.872Z,32.30
2018-04-10T12:18:01.472Z,32.60
2018-04-10T12:20:29.032Z,33.63
2018-04-10T12:22:56.644Z,33.63
2018-04-10T12:25:24.213Z,31.57
2018-04-10T12:27:51.825Z,29.83
2018-04-10T12:30:19.403Z,32.60
2018-04-10T12:35:23.768Z,32.60
2018-04-10T12:37:51.336Z,32.87
2018-04-10T12:40:19.692Z,33.97
2018-04-10T12:42:47.266Z,32.57
2018-04-10T12:45:14.891Z,32.43
2018-04-10T12:47:42.501Z,33.80
2018-04-10T12:50:10.111Z,33.00
2018-04-10T12:52:37.737Z,33.00
2018-04-10T12:55:05.324Z,33.77
2018-04-10T12:57:32.950Z,34.20
2018-04-10T13:00:00.526Z,33.73
2018-04-10T13:02:28.109Z,33.83
2018-04-10T13:04:55.723Z,33.70
2018-04-10T13:07:23.327Z,33.80
2018-04-10T13:09:50.896Z,32.93
2018-04-10T13:12:18.522Z,30.60
2018-04-10T13:14:46.898Z,33.60
2018-04-10T13:17:15.273Z,33.17
2018-04-10T13:19:43.618Z,33.13
2018-04-10T13:22:11.183Z,32.00
2018-04-10T13:24:38.828Z,29.73
2018-04-10T13:27:06.398Z,32.10
2018-04-10T13:29:33.978Z,32.53
2018-04-10T13:32:01.585Z,30.90
2018-04-10T13:34:29.205Z,31.10
2018-04-10T13:36:56.809Z,30.37
2018-04-10T13:39:24.379Z,31.60
2018-04-10T13:41:51.986Z,29.47
2018-04-10T13:44:19.593Z,29.40
2018-04-10T13:46:47.229Z,28.50
2018-04-10T13:49:15.557Z,29.50
2018-04-10T13:51:43.138Z,29.10
2018-04-10T13:54:10.745Z,28.67
2018-04-10T13:56:38.325Z,31.13
2018-04-10T13:59:05.936Z,28.57
2018-04-10T14:01:33.512Z,31.23
2018-04-10T14:04:01.913Z,29.07
2018-04-10T14:06:29.487Z,29.93
2018-04-10T14:08:57.065Z,28.80
2018-04-10T14:11:24.668Z,29.50
2018-04-10T14:13:52.245Z,28.80
2018-04-10T14:16:19.831Z,29.37
2018-04-10T14:18:47.452Z,28.43
2018-04-10T14:21:15.032Z,31.10
2018-04-10T14:23:42.640Z,29.37
2018-04-10T14:26:10.244Z,30.90
2018-04-10T14:28:38.580Z,29.77
2018-04-10T14:31:06.257Z,30.23
2018-04-10T14:33:33.833Z,31.57
2018-04-10T14:36:01.453Z,31.90
2018-04-10T14:38:29.030Z,32.53
2018-04-10T14:40:56.631Z,30.97
2018-04-10T14:43:24.281Z,32.33
2018-04-10T14:45:51.894Z,32.97
2018-04-10T14:48:19.470Z,31.80
2018-04-10T14:50:47.107Z,31.27
2018-04-10T14:53:14.689Z,30.27
2018-04-10T14:55:42.298Z,29.20
2018-04-10T14:58:09.879Z,28.43
2018-04-10T15:00:37.485Z,29.43
2018-04-10T15:03:05.062Z,29.00
2018-04-10T15:05:33.019Z,29.67
2018-04-10T15:08:00.596Z,28.93
2018-04-10T15:10:28.213Z,30.07
2018-04-10T15:12:55.854Z,27.90
2018-04-10T15:15:23.428Z,29.70
2018-04-10T15:17:51.011Z,28.60
2018-04-10T15:20:18.629Z,30.37
2018-04-10T15:22:46.241Z,28.93
2018-04-10T15:25:13.871Z,28.97
2018-04-10T15:27:41.449Z,28.27
2018-04-10T15:30:09.048Z,28.50
2018-04-10T15:32:36.660Z,28.80
2018-04-10T15:35:04.231Z,28.50
2018-04-10T15:37:31.848Z,28.93
2018-04-10T15:39:59.424Z,28.87
2018-04-10T15:42:26.997Z,29.43
2018-04-10T15:44:54.605Z,28.90
2018-04-10T15:47:22.216Z,29.07
2018-04-10T15:49:49.844Z,28.07
2018-04-10T15:52:17.458Z,27.93
2018-04-10T15:54:45.028Z,29.63
2018-04-10T15:57:12.638Z,28.20
2018-04-10T15:59:41.012Z,28.47
2018-04-10T16:02:09.348Z,28.50
2018-04-10T16:04:36.952Z,28.73
2018-04-10T16:07:04.529Z,27.33
2018-04-10T16:09:32.137Z,28.27
2018-04-10T16:11:59.716Z,29.23
2018-04-10T16:14:27.329Z,28.60
2018-04-10T16:16:54.933Z,28.30
2018-04-10T16:19:22.571Z,26.73
2018-04-10T16:21:50.181Z,26.30
2018-04-10T16:24:17.788Z,27.20
2018-04-10T16:26:45.393Z,25.47
2018-04-10T16:29:13.001Z,26.27
2018-04-10T16:31:40.639Z,26.73
2018-04-10T16:34:08.234Z,25.47
2018-04-10T16:36:35.857Z,26.23
2018-04-10T16:39:03.492Z,26.23
2018-04-10T16:41:31.067Z,26.37
2018-04-10T16:43:58.640Z,25.27
2018-04-10T16:46:27.019Z,25.20
2018-04-10T16:48:56.629Z,25.00
2018-04-10T16:51:24.967Z,26.13
2018-04-10T16:53:52.576Z,25.57
2018-04-10T16:56:20.155Z,24.50
2018-04-10T16:58:47.752Z,24.50
2018-04-10T17:01:15.398Z,24.27
2018-04-10T17:03:43.001Z,24.73
2018-04-10T17:06:10.625Z,24.43
2018-04-10T17:08:38.212Z,23.37
2018-04-10T17:11:05.780Z,24.83
2018-04-10T17:13:33.395Z,23.67
2018-04-10T17:16:00.997Z,24.90
2018-04-10T17:18:28.581Z,23.50
2018-04-10T17:20:56.192Z,23.03
2018-04-10T17:23:23.816Z,22.87
2018-04-10T17:25:52.147Z,25.20
2018-04-10T17:28:19.708Z,23.57
2018-04-10T17:30:47.316Z,22.80
2018-04-10T17:33:14.888Z,23.77
2018-04-10T17:35:42.502Z,23.53
2018-04-10T17:38:10.117Z,21.70
2018-04-10T17:40:37.726Z,22.43
2018-04-10T17:43:05.304Z,22.63
2018-04-10T17:45:33.667Z,24.27
2018-04-10T17:48:01.237Z,22.23
2018-04-10T17:50:29.794Z,21.13
2018-04-10T17:52:57.421Z,22.13
2018-04-10T17:55:24.988Z,23.80
2018-04-10T17:57:52.555Z,24.37
2018-04-10T18:00:20.158Z,23.90
2018-04-10T18:02:49.479Z,23.60
2018-04-10T18:05:17.053Z,24.13
2018-04-10T18:07:44.671Z,25.20
2018-04-10T18:10:12.245Z,23.77
2018-04-10T18:12:39.856Z,23.43
2018-04-10T18:15:07.425Z,22.90
2018-04-10T18:17:35.034Z,23.93
2018-04-10T18:20:02.643Z,23.07
2018-04-10T18:22:30.229Z,24.70
2018-04-10T18:24:57.852Z,24.20
2018-04-10T18:27:25.425Z,23.13
2018-04-10T18:29:52.996Z,24.03
2018-04-10T18:32:20.625Z,23.77
2018-04-10T18:34:48.194Z,24.63
2018-04-10T18:37:15.770Z,25.17
2018-04-10T18:39:43.405Z,24.50
2018-04-10T18:42:10.977Z,24.53
2018-04-10T18:44:38.588Z,24.30
2018-04-10T18:47:06.158Z,23.23
2018-04-10T18:49:33.763Z,24.10
2018-04-10T18:52:01.380Z,23.37
2018-04-10T18:54:28.967Z,22.50
2018-04-10T18:56:57.348Z,23.80
2018-04-10T18:59:25.733Z,24.23
2018-04-10T19:01:53.365Z,22.83
2018-04-10T19:04:20.976Z,23.03
2018-04-10T19:06:48.616Z,23.67
2018-04-10T19:09:16.184Z,23.63
2018-04-10T19:11:43.760Z,22.43
2018-04-10T19:14:11.396Z,23.53
2018-04-10T19:16:39.777Z,23.20
2018-04-10T19:19:07.394Z,23.13
2018-04-10T19:21:34.963Z,22.97
2018-04-10T19:24:02.624Z,22.83
2018-04-10T19:26:30.220Z,24.63
2018-04-10T19:28:58.600Z,23.67
2018-04-10T19:31:26.939Z,23.63
2018-04-10T19:33:54.506Z,22.70
2018-04-10T19:36:22.116Z,23.43
2018-04-10T19:38:49.689Z,22.60
2018-04-10T19:41:17.308Z,23.03
2018-04-10T19:43:45.648Z,22.77
2018-04-10T19:46:13.216Z,23.57
2018-04-10T19:48:40.828Z,21.93
2018-04-10T19:51:08.401Z,23.87
2018-04-10T19:53:36.017Z,22.17
2018-04-10T19:56:05.241Z,22.50
2018-04-10T19:58:33.621Z,23.33
2018-04-10T20:01:01.955Z,20.60
2018-04-10T20:03:29.672Z,22.20
2018-04-10T20:05:57.261Z,22.97
2018-04-10T20:08:24.941Z,22.50
2018-04-10T20:10:53.081Z,21.77
2018-04-10T20:13:20.670Z,22.77
2018-04-10T20:15:49.043Z,23.77
2018-04-10T20:18:16.797Z,22.60
2018-04-10T20:20:44.443Z,23.20
2018-04-10T20:23:12.006Z,23.33
2018-04-10T20:25:39.736Z,22.47
2018-04-10T20:28:07.304Z,22.47
2018-04-10T20:30:34.939Z,22.73
2018-04-10T20:33:02.585Z,23.53
2018-04-10T20:35:30.169Z,23.30
2018-04-10T20:37:57.757Z,23.67
2018-04-10T20:40:26.133Z,23.27
2018-04-10T20:42:54.507Z,23.27
2018-04-10T20:45:22.161Z,22.47
2018-04-10T20:47:49.875Z,24.10
2018-04-10T20:50:17.669Z,23.43
2018-04-10T20:52:45.517Z,24.33
2018-04-10T20:55:13.692Z,23.07
2018-04-10T20:57:41.295Z,22.97
2018-04-10T21:00:08.915Z,24.00
2018-04-10T21:02:36.701Z,22.70
2018-04-10T21:05:04.281Z,24.43
2018-04-10T21:07:31.991Z,24.43
2018-04-10T21:10:01.498Z,23.80
2018-04-10T21:12:29.151Z,23.00
2018-04-10T21:14:56.819Z,24.70
2018-04-10T21:17:26.883Z,23.83
2018-04-10T21:19:54.752Z,24.33
2018-04-10T21:22:22.407Z,24.57
2018-04-10T21:24:49.979Z,25.37
2018-04-10T21:27:17.593Z,26.40
2018-04-10T21:29:45.243Z,25.50
2018-04-10T21:32:12.877Z,26.87
2018-04-10T21:34:40.573Z,26.50
2018-04-10T21:37:08.156Z,27.07
2018-04-10T21:39:35.780Z,26.17
2018-04-10T21:42:03.794Z,27.87
2018-04-10T21:44:31.456Z,26.73
2018-04-10T21:46:59.121Z,27.30
2018-04-10T21:49:26.812Z,27.97
2018-04-10T21:51:54.380Z,26.80
2018-04-10T21:54:22.041Z,28.70
2018-04-10T21:56:49.652Z,28.60
2018-04-10T21:59:17.221Z,27.63
2018-04-10T22:01:46.151Z,26.93
2018-04-10T22:04:13.881Z,27.93
2018-04-10T22:06:41.489Z,27.37
2018-04-10T22:09:09.059Z,27.20
2018-04-10T22:11:36.673Z,28.60
2018-04-10T22:14:04.303Z,28.60
2018-04-10T22:16:31.947Z,28.00
2018-04-10T22:18:59.525Z,29.13
2018-04-10T22:21:27.304Z,27.87
2018-04-10T22:23:54.878Z,29.37
2018-04-10T22:26:22.485Z,29.77
2018-04-10T22:28:50.101Z,29.17
2018-04-10T22:31:17.675Z,29.40
2018-04-10T22:33:46.005Z,30.90
2018-04-10T22:36:13.631Z,30.20
2018-04-10T22:38:41.972Z,28.83
2018-04-10T22:41:09.572Z,28.63
2018-04-10T22:43:37.963Z,28.50
2018-04-10T22:46:05.554Z,28.10
2018-04-10T22:48:33.169Z,29.23
2018-04-10T22:51:00.791Z,30.00
2018-04-10T22:53:28.405Z,30.27
2018-04-10T22:55:56.102Z,30.00
2018-04-10T22:58:23.719Z,30.37
2018-04-10T23:00:52.054Z,30.50
2018-04-10T23:03:19.667Z,29.70
2018-04-10T23:05:48.043Z,30.93
2018-04-10T23:08:16.395Z,30.50
2018-04-10T23:10:44.013Z,29.53
2018-04-10T23:13:11.625Z,29.77
2018-04-10T23:15:39.197Z,30.10
2018-04-10T23:18:06.848Z,31.10
2018-04-10T23:20:34.423Z,32.03
2018-04-10T23:23:02.000Z,30.97
2018-04-10T23:25:29.654Z,30.60
2018-04-10T23:27:57.222Z,29.67
2018-04-10T23:30:24.836Z,31.17
2018-04-10T23:32:52.449Z,31.83
2018-04-10T23:35:20.026Z,32.97
2018-04-10T23:37:48.360Z,33.63
2018-04-10T23:40:16.003Z,32.47
2018-04-10T23:42:43.563Z,31.60
2018-04-10T23:45:11.176Z,32.57
2018-04-10T23:47:38.741Z,32.77
2018-04-10T23:50:06.361Z,32.73
2018-04-10T23:52:33.973Z,32.03
2018-04-10T23:55:01.609Z,33.43
2018-04-10T23:57:29.186Z,33.27
2018-04-10T23:59:56.754Z,33.40
